sensor_id;sensor_type;location;lat;lon;timestamp;temperature;humidity
13344;DHT22;6741;48.964;9.406;2024-03-23T00:54:24;6.10;99.90
13344;DHT22;6741;48.964;9.406;2024-03-23T00:56:50;6.00;99.90
13344;DHT22;6741;48.964;9.406;2024-03-23T00:59:18;6.00;99.90
13344;DHT22;6741;48.964;9.406;2024-03-23T01:01:44;6.00;99.90
13344;DHT22;6741;48.964;9.406;2024-03-23T01:04:10;6.00;99.90
13344;DHT22;6741;48.964;9.406;2024-03-23T01:06:36;6.00;99.90
13344;DHT22;6741;48.964;9.406;2024-03-23T01:09:04;6.00;99.90
13344;DHT22;6741;48.964;9.406;2024-03-23T01:11:31;6.00;99.90
13344;DHT22;6741;48.964;9.406;2024-03-23T01:13:58;6.10;99.90
13344;DHT22;6741;48.964;9.406;2024-03-23T01:16:24;6.00;99.90
13344;DHT22;6741;48.964;9.406;2024-03-23T01:18:50;6.00;99.90
13344;DHT22;6741;48.964;9.406;2024-03-23T01:21:16;6.00;99.90
13344;DHT22;6741;48.964;9.406;2024-03-23T01:23:43;6.10;99.90
13344;DHT22;6741;48.964;9.406;2024-03-23T01:26:10;6.10;99.90
13344;DHT22;6741;48.964;9.406;2024-03-23T01:28:37;6.20;99.90
13344;DHT22;6741;48.964;9.406;2024-03-23T01:31:03;6.30;99.90
13344;DHT22;6741;48.964;9.406;2024-03-23T01:33:30;6.30;99.90
13344;DHT22;6741;48.964;9.406;2024-03-23T01:35:56;6.40;99.90
13344;DHT22;6741;48.964;9.406;2024-03-23T01:38:23;6.30;99.90
13344;DHT22;6741;48.964;9.406;2024-03-23T01:40:49;6.30;99.90
13344;DHT22;6741;48.964;9.406;2024-03-23T01:43:17;6.30;99.90
13344;DHT22;6741;48.964;9.406;2024-03-23T01:45:43;6.30;99.90
13344;DHT22;6741;48.964;9.406;2024-03-23T01:48:09;6.30;99.90
13344;DHT22;6741;48.964;9.406;2024-03-23T01:50:38;6.30;99.90
13344;DHT22;6741;48.964;9.406;2024-03-23T01:53:05;6.40;99.90
13344;DHT22;6741;48.964;9.406;2024-03-23T01:55:32;6.40;99.90
13344;DHT22;6741;48.964;9.406;2024-03-23T01:57:59;6.40;99.90
13344;DHT22;6741;48.964;9.406;2024-03-23T02:00:26;6.40;99.90
13344;DHT22;6741;48.964;9.406;2024-03-23T02:02:53;6.30;99.90
13344;DHT22;6741;48.964;9.406;2024-03-23T02:05:20;6.40;99.90
13344;DHT22;6741;48.964;9.406;2024-03-23T02:07:47;6.30;99.90
13344;DHT22;6741;48.964;9.406;2024-03-23T02:10:13;6.40;99.90
13344;DHT22;6741;48.964;9.406;2024-03-23T02:12:40;6.30;99.90
13344;DHT22;6741;48.964;9.406;2024-03-23T02:15:06;6.30;99.90
13344;DHT22;6741;48.964;9.406;2024-03-23T02:17:35;6.30;99.90
13344;DHT22;6741;48.964;9.406;2024-03-23T02:20:02;6.30;99.90
13344;DHT22;6741;48.964;9.406;2024-03-23T02:22:36;6.30;99.90
13344;DHT22;6741;48.964;9.406;2024-03-23T02:25:04;6.20;99.90
13344;DHT22;6741;48.964;9.406;2024-03-23T02:27:31;6.10;99.90
13344;DHT22;6741;48.964;9.406;2024-03-23T02:29:57;6.20;99.90
13344;DHT22;6741;48.964;9.406;2024-03-23T02:32:24;6.10;99.90
13344;DHT22;6741;48.964;9.406;2024-03-23T02:34:49;6.10;99.90
13344;DHT22;6741;48.964;9.406;2024-03-23T02:37:16;6.10;99.90
13344;DHT22;6741;48.964;9.406;2024-03-23T02:39:42;6.10;99.90
13344;DHT22;6741;48.964;9.406;2024-03-23T02:42:11;6.00;99.90
13344;DHT22;6741;48.964;9.406;2024-03-23T02:44:37;6.00;99.90
13344;DHT22;6741;48.964;9.406;2024-03-23T02:47:04;6.10;99.90
13344;DHT22;6741;48.964;9.406;2024-03-23T02:49:30;6.10;99.90
13344;DHT22;6741;48.964;9.406;2024-03-23T02:51:57;6.10;99.90
13344;DHT22;6741;48.964;9.406;2024-03-23T02:54:23;6.00;99.90
13344;DHT22;6741;48.964;9.406;2024-03-23T02:56:50;6.10;99.90
13344;DHT22;6741;48.964;9.406;2024-03-23T02:59:17;6.00;99.90
13344;DHT22;6741;48.964;9.406;2024-03-23T03:01:44;5.90;99.90
13344;DHT22;6741;48.964;9.406;2024-03-23T03:04:09;5.90;99.90
13344;DHT22;6741;48.964;9.406;2024-03-23T03:06:36;5.80;99.90
13344;DHT22;6741;48.964;9.406;2024-03-23T03:09:02;5.80;99.90
13344;DHT22;6741;48.964;9.406;2024-03-23T03:11:30;5.80;99.90
13344;DHT22;6741;48.964;9.406;2024-03-23T03:13:56;5.80;99.90
13344;DHT22;6741;48.964;9.406;2024-03-23T03:16:27;5.80;99.90
13344;DHT22;6741;48.964;9.406;2024-03-23T03:18:53;5.80;99.90
13344;DHT22;6741;48.964;9.406;2024-03-23T03:21:19;5.80;99.90
13344;DHT22;6741;48.964;9.406;2024-03-23T03:23:45;5.80;99.90
13344;DHT22;6741;48.964;9.406;2024-03-23T03:26:15;5.80;99.90
13344;DHT22;6741;48.964;9.406;2024-03-23T03:28:41;5.70;99.90
13344;DHT22;6741;48.964;9.406;2024-03-23T03:31:08;5.80;99.90
13344;DHT22;6741;48.964;9.406;2024-03-23T03:33:36;5.70;99.90
13344;DHT22;6741;48.964;9.406;2024-03-23T03:36:03;5.60;99.90
13344;DHT22;6741;48.964;9.406;2024-03-23T03:38:29;5.50;99.90
13344;DHT22;6741;48.964;9.406;2024-03-23T03:40:56;5.50;99.90
13344;DHT22;6741;48.964;9.406;2024-03-23T03:43:23;5.50;99.90
13344;DHT22;6741;48.964;9.406;2024-03-23T03:45:53;5.50;99.90
13344;DHT22;6741;48.964;9.406;2024-03-23T03:48:19;5.40;99.90
13344;DHT22;6741;48.964;9.406;2024-03-23T03:50:47;5.40;99.90
13344;DHT22;6741;48.964;9.406;2024-03-23T03:53:13;5.50;99.90
13344;DHT22;6741;48.964;9.406;2024-03-23T03:55:40;5.60;99.90
13344;DHT22;6741;48.964;9.406;2024-03-23T03:58:06;5.60;99.90
13344;DHT22;6741;48.964;9.406;2024-03-23T04:00:33;5.70;99.90
13344;DHT22;6741;48.964;9.406;2024-03-23T04:02:59;5.70;99.90
13344;DHT22;6741;48.964;9.406;2024-03-23T04:05:25;5.70;99.90
13344;DHT22;6741;48.964;9.406;2024-03-23T04:07:53;5.70;99.90
13344;DHT22;6741;48.964;9.406;2024-03-23T04:10:20;5.80;99.90
13344;DHT22;6741;48.964;9.406;2024-03-23T04:12:46;5.80;99.90
13344;DHT22;6741;48.964;9.406;2024-03-23T04:15:13;5.80;99.90
13344;DHT22;6741;48.964;9.406;2024-03-23T04:17:40;5.70;99.90
13344;DHT22;6741;48.964;9.406;2024-03-23T04:20:09;5.70;99.90
13344;DHT22;6741;48.964;9.406;2024-03-23T04:22:36;5.70;99.90
13344;DHT22;6741;48.964;9.406;2024-03-23T04:25:05;5.80;99.90
13344;DHT22;6741;48.964;9.406;2024-03-23T04:27:32;5.90;99.90
13344;DHT22;6741;48.964;9.406;2024-03-23T04:29:59;6.00;99.90
13344;DHT22;6741;48.964;9.406;2024-03-23T04:32:26;6.10;99.90
13344;DHT22;6741;48.964;9.406;2024-03-23T04:34:54;6.10;99.90
13344;DHT22;6741;48.964;9.406;2024-03-23T04:37:20;6.20;99.90
13344;DHT22;6741;48.964;9.406;2024-03-23T04:39:47;6.20;99.90
13344;DHT22;6741;48.964;9.406;2024-03-23T04:42:16;6.30;99.90
13344;DHT22;6741;48.964;9.406;2024-03-23T04:44:43;6.50;99.90
13344;DHT22;6741;48.964;9.406;2024-03-23T04:47:10;7.90;99.90
13344;DHT22;6741;48.964;9.406;2024-03-23T04:49:37;8.30;99.90
13344;DHT22;6741;48.964;9.406;2024-03-23T04:52:04;8.70;99.90
13344;DHT22;6741;48.964;9.406;2024-03-23T04:54:31;8.70;99.90
13344;DHT22;6741;48.964;9.406;2024-03-23T04:56:59;8.60;99.90
13344;DHT22;6741;48.964;9.406;2024-03-23T04:59:26;8.50;99.90
13344;DHT22;6741;48.964;9.406;2024-03-23T05:01:53;8.50;99.90
13344;DHT22;6741;48.964;9.406;2024-03-23T05:04:19;8.50;99.90
13344;DHT22;6741;48.964;9.406;2024-03-23T05:06:46;8.50;99.90
13344;DHT22;6741;48.964;9.406;2024-03-23T05:09:11;8.50;99.90
13344;DHT22;6741;48.964;9.406;2024-03-23T05:11:39;8.50;99.90
13344;DHT22;6741;48.964;9.406;2024-03-23T05:14:04;8.60;99.90
13344;DHT22;6741;48.964;9.406;2024-03-23T05:16:33;8.70;99.90
13344;DHT22;6741;48.964;9.406;2024-03-23T05:18:59;8.70;99.90
13344;DHT22;6741;48.964;9.406;2024-03-23T05:21:26;8.80;99.90
13344;DHT22;6741;48.964;9.406;2024-03-23T05:23:53;8.80;99.90
13344;DHT22;6741;48.964;9.406;2024-03-23T05:26:21;8.80;99.90
13344;DHT22;6741;48.964;9.406;2024-03-23T05:28:47;8.90;99.90
13344;DHT22;6741;48.964;9.406;2024-03-23T05:31:22;9.00;99.90
13344;DHT22;6741;48.964;9.406;2024-03-23T05:33:50;9.10;99.90
13344;DHT22;6741;48.964;9.406;2024-03-23T05:36:17;9.10;99.90
13344;DHT22;6741;48.964;9.406;2024-03-23T05:38:43;9.10;99.90
13344;DHT22;6741;48.964;9.406;2024-03-23T05:41:10;9.00;99.90
13344;DHT22;6741;48.964;9.406;2024-03-23T05:43:36;9.00;99.90
13344;DHT22;6741;48.964;9.406;2024-03-23T05:46:03;9.00;99.90
13344;DHT22;6741;48.964;9.406;2024-03-23T05:48:30;9.10;99.90
13344;DHT22;6741;48.964;9.406;2024-03-23T05:50:58;9.10;99.90
13344;DHT22;6741;48.964;9.406;2024-03-23T05:53:24;9.20;99.90
13344;DHT22;6741;48.964;9.406;2024-03-23T05:55:59;9.20;99.90
13344;DHT22;6741;48.964;9.406;2024-03-23T05:58:25;9.20;99.90
13344;DHT22;6741;48.964;9.406;2024-03-23T06:00:57;9.30;99.90
13344;DHT22;6741;48.964;9.406;2024-03-23T06:03:24;9.30;99.90
13344;DHT22;6741;48.964;9.406;2024-03-23T06:05:51;9.20;99.90
13344;DHT22;6741;48.964;9.406;2024-03-23T06:08:20;9.20;99.90
13344;DHT22;6741;48.964;9.406;2024-03-23T06:10:47;9.20;99.90
13344;DHT22;6741;48.964;9.406;2024-03-23T06:13:13;9.20;99.90
13344;DHT22;6741;48.964;9.406;2024-03-23T06:15:40;9.10;99.90
13344;DHT22;6741;48.964;9.406;2024-03-23T06:18:06;9.10;99.90
13344;DHT22;6741;48.964;9.406;2024-03-23T06:20:34;9.00;99.90
13344;DHT22;6741;48.964;9.406;2024-03-23T06:23:00;8.90;99.90
13344;DHT22;6741;48.964;9.406;2024-03-23T06:25:28;8.90;99.90
13344;DHT22;6741;48.964;9.406;2024-03-23T06:27:54;8.90;99.90
13344;DHT22;6741;48.964;9.406;2024-03-23T06:30:21;8.80;99.90
13344;DHT22;6741;48.964;9.406;2024-03-23T06:32:47;8.80;99.90
13344;DHT22;6741;48.964;9.406;2024-03-23T06:35:14;8.90;99.90
13344;DHT22;6741;48.964;9.406;2024-03-23T06:37:40;8.80;99.90
13344;DHT22;6741;48.964;9.406;2024-03-23T06:40:08;8.80;99.90
13344;DHT22;6741;48.964;9.406;2024-03-23T06:42:36;8.80;99.90
13344;DHT22;6741;48.964;9.406;2024-03-23T06:45:04;8.80;99.90
13344;DHT22;6741;48.964;9.406;2024-03-23T06:47:30;8.70;99.90
13344;DHT22;6741;48.964;9.406;2024-03-23T06:49:57;8.70;99.90
13344;DHT22;6741;48.964;9.406;2024-03-23T06:52:23;8.60;99.90
13344;DHT22;6741;48.964;9.406;2024-03-23T06:54:50;8.60;99.90
13344;DHT22;6741;48.964;9.406;2024-03-23T06:57:16;8.60;99.90
13344;DHT22;6741;48.964;9.406;2024-03-23T06:59:44;8.50;99.90
13344;DHT22;6741;48.964;9.406;2024-03-23T07:02:10;8.50;99.90
13344;DHT22;6741;48.964;9.406;2024-03-23T07:04:37;8.50;99.90
13344;DHT22;6741;48.964;9.406;2024-03-23T07:07:05;8.50;99.90
13344;DHT22;6741;48.964;9.406;2024-03-23T07:09:32;8.50;99.90
13344;DHT22;6741;48.964;9.406;2024-03-23T07:11:57;8.50;99.90
13344;DHT22;6741;48.964;9.406;2024-03-23T07:14:24;8.40;99.90
13344;DHT22;6741;48.964;9.406;2024-03-23T07:16:52;8.40;99.90
13344;DHT22;6741;48.964;9.406;2024-03-23T07:19:18;8.50;99.90
13344;DHT22;6741;48.964;9.406;2024-03-23T07:21:45;8.50;99.90
13344;DHT22;6741;48.964;9.406;2024-03-23T07:24:13;8.60;99.90
13344;DHT22;6741;48.964;9.406;2024-03-23T07:26:39;8.60;99.90
13344;DHT22;6741;48.964;9.406;2024-03-23T07:29:06;8.70;99.90
13344;DHT22;6741;48.964;9.406;2024-03-23T07:31:32;8.60;99.90
13344;DHT22;6741;48.964;9.406;2024-03-23T07:34:01;8.70;99.90
13344;DHT22;6741;48.964;9.406;2024-03-23T07:36:26;8.90;99.90
13344;DHT22;6741;48.964;9.406;2024-03-23T07:38:53;9.10;99.90
13344;DHT22;6741;48.964;9.406;2024-03-23T07:41:20;9.10;99.90
13344;DHT22;6741;48.964;9.406;2024-03-23T07:43:48;9.00;99.90
13344;DHT22;6741;48.964;9.406;2024-03-23T07:46:15;9.00;99.90
13344;DHT22;6741;48.964;9.406;2024-03-23T07:48:42;8.90;99.90
13344;DHT22;6741;48.964;9.406;2024-03-23T07:51:11;8.80;99.90
13344;DHT22;6741;48.964;9.406;2024-03-23T07:53:38;8.70;99.90
13344;DHT22;6741;48.964;9.406;2024-03-23T07:56:06;8.60;99.90
13344;DHT22;6741;48.964;9.406;2024-03-23T07:58:34;8.30;99.90
13344;DHT22;6741;48.964;9.406;2024-03-23T08:01:04;8.00;99.90
13344;DHT22;6741;48.964;9.406;2024-03-23T08:03:33;7.80;99.90
13344;DHT22;6741;48.964;9.406;2024-03-23T08:06:07;7.70;99.90
13344;DHT22;6741;48.964;9.406;2024-03-23T08:08:35;7.70;99.90
13344;DHT22;6741;48.964;9.406;2024-03-23T08:11:01;7.70;99.90
13344;DHT22;6741;48.964;9.406;2024-03-23T08:13:28;7.60;99.90
13344;DHT22;6741;48.964;9.406;2024-03-23T08:15:56;7.50;99.90
13344;DHT22;6741;48.964;9.406;2024-03-23T08:18:23;7.40;99.90
13344;DHT22;6741;48.964;9.406;2024-03-23T08:20:56;7.40;99.90
13344;DHT22;6741;48.964;9.406;2024-03-23T08:23:23;7.30;99.90
13344;DHT22;6741;48.964;9.406;2024-03-23T08:25:50;7.20;99.90
13344;DHT22;6741;48.964;9.406;2024-03-23T08:28:17;7.20;99.90
13344;DHT22;6741;48.964;9.406;2024-03-23T08:30:43;7.20;99.90
13344;DHT22;6741;48.964;9.406;2024-03-23T08:33:10;7.10;99.90
13344;DHT22;6741;48.964;9.406;2024-03-23T08:35:36;7.10;99.90
13344;DHT22;6741;48.964;9.406;2024-03-23T08:38:03;7.30;99.90
13344;DHT22;6741;48.964;9.406;2024-03-23T08:40:29;7.30;99.90
13344;DHT22;6741;48.964;9.406;2024-03-23T08:42:57;7.30;99.90
13344;DHT22;6741;48.964;9.406;2024-03-23T08:45:24;7.30;99.90
13344;DHT22;6741;48.964;9.406;2024-03-23T08:47:51;7.30;99.90
13344;DHT22;6741;48.964;9.406;2024-03-23T08:50:17;7.10;99.90
13344;DHT22;6741;48.964;9.406;2024-03-23T08:52:44;7.10;99.90
13344;DHT22;6741;48.964;9.406;2024-03-23T08:55:10;7.30;99.90
13344;DHT22;6741;48.964;9.406;2024-03-23T08:57:37;7.40;99.90
13344;DHT22;6741;48.964;9.406;2024-03-23T09:00:05;7.50;99.90
13344;DHT22;6741;48.964;9.406;2024-03-23T09:02:34;7.70;99.90
13344;DHT22;6741;48.964;9.406;2024-03-23T09:05:00;7.70;99.90
13344;DHT22;6741;48.964;9.406;2024-03-23T09:07:30;7.70;99.90
13344;DHT22;6741;48.964;9.406;2024-03-23T09:09:56;7.60;99.90
13344;DHT22;6741;48.964;9.406;2024-03-23T09:12:23;7.50;99.90
13344;DHT22;6741;48.964;9.406;2024-03-23T09:14:49;7.40;99.90
13344;DHT22;6741;48.964;9.406;2024-03-23T09:17:17;7.40;67.90
13344;DHT22;6741;48.964;9.406;2024-03-23T09:19:44;7.40;78.00
13344;DHT22;6741;48.964;9.406;2024-03-23T09:22:11;7.40;62.30
13344;DHT22;6741;48.964;9.406;2024-03-23T09:24:38;7.40;59.60
13344;DHT22;6741;48.964;9.406;2024-03-23T09:27:05;7.30;44.60
13344;DHT22;6741;48.964;9.406;2024-03-23T09:29:31;7.10;26.10
13344;DHT22;6741;48.964;9.406;2024-03-23T09:31:58;7.10;82.70
13344;DHT22;6741;48.964;9.406;2024-03-23T09:34:25;7.20;54.80
13344;DHT22;6741;48.964;9.406;2024-03-23T09:36:52;7.20;94.60
13344;DHT22;6741;48.964;9.406;2024-03-23T09:39:18;7.20;70.60
13344;DHT22;6741;48.964;9.406;2024-03-23T09:41:46;7.20;63.30
13344;DHT22;6741;48.964;9.406;2024-03-23T09:44:11;7.30;94.40
13344;DHT22;6741;48.964;9.406;2024-03-23T09:46:39;7.30;62.60
13344;DHT22;6741;48.964;9.406;2024-03-23T09:49:06;7.30;16.30
13344;DHT22;6741;48.964;9.406;2024-03-23T09:51:36;7.40;54.60
13344;DHT22;6741;48.964;9.406;2024-03-23T09:54:03;7.50;3.40
13344;DHT22;6741;48.964;9.406;2024-03-23T09:56:29;7.70;7.00
13344;DHT22;6741;48.964;9.406;2024-03-23T09:59:01;7.80;1.00
13344;DHT22;6741;48.964;9.406;2024-03-23T10:01:29;7.90;1.00
13344;DHT22;6741;48.964;9.406;2024-03-23T10:03:55;8.00;1.00
13344;DHT22;6741;48.964;9.406;2024-03-23T10:06:22;8.10;1.00
13344;DHT22;6741;48.964;9.406;2024-03-23T10:08:51;8.00;1.00
13344;DHT22;6741;48.964;9.406;2024-03-23T10:11:20;8.00;1.00
13344;DHT22;6741;48.964;9.406;2024-03-23T10:13:47;8.10;1.00
13344;DHT22;6741;48.964;9.406;2024-03-23T10:16:21;8.10;1.00
13344;DHT22;6741;48.964;9.406;2024-03-23T10:18:47;8.60;1.00
13344;DHT22;6741;48.964;9.406;2024-03-23T10:21:15;9.20;1.00
13344;DHT22;6741;48.964;9.406;2024-03-23T10:23:42;9.50;1.00
13344;DHT22;6741;48.964;9.406;2024-03-23T10:26:19;9.60;99.90
13344;DHT22;6741;48.964;9.406;2024-03-23T10:28:56;9.10;16.80
13344;DHT22;6741;48.964;9.406;2024-03-23T10:31:26;8.90;65.20
13344;DHT22;6741;48.964;9.406;2024-03-23T10:33:52;8.70;32.50
13344;DHT22;6741;48.964;9.406;2024-03-23T10:36:20;8.70;99.90
13344;DHT22;6741;48.964;9.406;2024-03-23T10:38:46;8.60;99.90
13344;DHT22;6741;48.964;9.406;2024-03-23T10:41:15;8.50;99.90
13344;DHT22;6741;48.964;9.406;2024-03-23T10:43:43;8.50;99.90
13344;DHT22;6741;48.964;9.406;2024-03-23T10:46:11;8.60;62.10
13344;DHT22;6741;48.964;9.406;2024-03-23T10:48:38;8.60;1.00
13344;DHT22;6741;48.964;9.406;2024-03-23T10:51:06;8.70;99.90
13344;DHT22;6741;48.964;9.406;2024-03-23T10:53:34;8.80;1.00
13344;DHT22;6741;48.964;9.406;2024-03-23T10:56:00;8.70;66.10
13344;DHT22;6741;48.964;9.406;2024-03-23T10:58:31;8.40;1.00
13344;DHT22;6741;48.964;9.406;2024-03-23T11:00:57;8.30;1.00
13344;DHT22;6741;48.964;9.406;2024-03-23T11:03:32;8.30;1.00
13344;DHT22;6741;48.964;9.406;2024-03-23T11:05:59;8.20;1.00
13344;DHT22;6741;48.964;9.406;2024-03-23T11:08:33;8.20;1.00
13344;DHT22;6741;48.964;9.406;2024-03-23T11:11:16;8.10;1.00
13344;DHT22;6741;48.964;9.406;2024-03-23T11:13:47;7.80;1.00
13344;DHT22;6741;48.964;9.406;2024-03-23T11:16:17;7.40;99.90
13344;DHT22;6741;48.964;9.406;2024-03-23T11:18:48;7.10;1.00
13344;DHT22;6741;48.964;9.406;2024-03-23T11:21:53;6.90;99.90
13344;DHT22;6741;48.964;9.406;2024-03-23T11:24:21;6.70;1.00
13344;DHT22;6741;48.964;9.406;2024-03-23T11:26:47;6.80;1.00
13344;DHT22;6741;48.964;9.406;2024-03-23T11:29:17;7.00;1.00
13344;DHT22;6741;48.964;9.406;2024-03-23T11:31:46;7.10;84.00
13344;DHT22;6741;48.964;9.406;2024-03-23T11:34:15;7.30;99.90
13344;DHT22;6741;48.964;9.406;2024-03-23T11:36:41;7.70;1.00
13344;DHT22;6741;48.964;9.406;2024-03-23T11:39:14;8.20;1.00
13344;DHT22;6741;48.964;9.406;2024-03-23T11:41:48;9.10;99.90
13344;DHT22;6741;48.964;9.406;2024-03-23T11:44:17;8.60;99.90
13344;DHT22;6741;48.964;9.406;2024-03-23T11:46:43;8.20;1.00
13344;DHT22;6741;48.964;9.406;2024-03-23T11:49:21;8.10;1.00
13344;DHT22;6741;48.964;9.406;2024-03-23T11:51:47;8.20;1.00
13344;DHT22;6741;48.964;9.406;2024-03-23T11:54:15;8.00;1.00
13344;DHT22;6741;48.964;9.406;2024-03-23T11:56:40;7.90;1.00
13344;DHT22;6741;48.964;9.406;2024-03-23T11:59:08;7.80;99.90
13344;DHT22;6741;48.964;9.406;2024-03-23T12:01:37;7.60;1.00
13344;DHT22;6741;48.964;9.406;2024-03-23T12:04:04;7.60;1.00
13344;DHT22;6741;48.964;9.406;2024-03-23T12:06:30;7.70;1.00
13344;DHT22;6741;48.964;9.406;2024-03-23T12:09:05;7.70;1.00
13344;DHT22;6741;48.964;9.406;2024-03-23T12:11:31;7.70;1.00
13344;DHT22;6741;48.964;9.406;2024-03-23T12:14:00;7.80;99.90
13344;DHT22;6741;48.964;9.406;2024-03-23T12:16:25;7.80;1.00
13344;DHT22;6741;48.964;9.406;2024-03-23T12:19:05;7.90;99.90
13344;DHT22;6741;48.964;9.406;2024-03-23T12:21:31;7.90;99.90
13344;DHT22;6741;48.964;9.406;2024-03-23T12:23:58;7.80;1.00
13344;DHT22;6741;48.964;9.406;2024-03-23T12:26:24;7.90;1.00
13344;DHT22;6741;48.964;9.406;2024-03-23T12:28:51;7.80;99.90
13344;DHT22;6741;48.964;9.406;2024-03-23T12:31:17;7.80;1.00
13344;DHT22;6741;48.964;9.406;2024-03-23T12:33:44;8.10;1.00
13344;DHT22;6741;48.964;9.406;2024-03-23T12:36:11;8.30;99.90
13344;DHT22;6741;48.964;9.406;2024-03-23T12:38:38;9.10;99.90
13344;DHT22;6741;48.964;9.406;2024-03-23T12:41:04;10.40;1.00
13344;DHT22;6741;48.964;9.406;2024-03-23T12:43:31;11.30;99.90
13344;DHT22;6741;48.964;9.406;2024-03-23T12:45:57;12.10;1.00
13344;DHT22;6741;48.964;9.406;2024-03-23T12:48:24;11.60;1.00
13344;DHT22;6741;48.964;9.406;2024-03-23T12:50:54;11.10;1.00
13344;DHT22;6741;48.964;9.406;2024-03-23T12:53:22;10.50;75.10
13344;DHT22;6741;48.964;9.406;2024-03-23T12:55:48;9.80;1.00
13344;DHT22;6741;48.964;9.406;2024-03-23T12:58:15;10.00;99.90
13344;DHT22;6741;48.964;9.406;2024-03-23T13:00:41;9.80;1.00
13344;DHT22;6741;48.964;9.406;2024-03-23T13:03:13;10.60;43.30
13344;DHT22;6741;48.964;9.406;2024-03-23T13:05:39;10.50;1.00
13344;DHT22;6741;48.964;9.406;2024-03-23T13:08:06;10.10;1.00
13344;DHT22;6741;48.964;9.406;2024-03-23T13:10:34;9.60;1.00
13344;DHT22;6741;48.964;9.406;2024-03-23T13:13:01;10.30;1.00
13344;DHT22;6741;48.964;9.406;2024-03-23T13:15:27;11.50;99.90
13344;DHT22;6741;48.964;9.406;2024-03-23T13:17:54;11.90;99.90
13344;DHT22;6741;48.964;9.406;2024-03-23T13:20:19;12.80;99.90
13344;DHT22;6741;48.964;9.406;2024-03-23T13:22:46;13.60;99.90
13344;DHT22;6741;48.964;9.406;2024-03-23T13:25:13;13.30;99.90
13344;DHT22;6741;48.964;9.406;2024-03-23T13:27:41;14.00;99.90
13344;DHT22;6741;48.964;9.406;2024-03-23T13:30:08;14.20;99.90
13344;DHT22;6741;48.964;9.406;2024-03-23T13:32:35;13.20;99.90
13344;DHT22;6741;48.964;9.406;2024-03-23T13:35:01;12.10;99.90
13344;DHT22;6741;48.964;9.406;2024-03-23T13:37:28;12.50;99.90
13344;DHT22;6741;48.964;9.406;2024-03-23T13:39:53;12.90;99.90
13344;DHT22;6741;48.964;9.406;2024-03-23T13:42:20;12.20;99.90
13344;DHT22;6741;48.964;9.406;2024-03-23T13:44:47;11.30;99.90
13344;DHT22;6741;48.964;9.406;2024-03-23T13:47:15;11.40;99.90
13344;DHT22;6741;48.964;9.406;2024-03-23T13:49:41;11.50;99.90
13344;DHT22;6741;48.964;9.406;2024-03-23T13:52:08;11.30;99.90
13344;DHT22;6741;48.964;9.406;2024-03-23T13:54:34;12.00;99.90
13344;DHT22;6741;48.964;9.406;2024-03-23T13:57:01;12.90;99.90
13344;DHT22;6741;48.964;9.406;2024-03-23T13:59:27;12.70;99.90
13344;DHT22;6741;48.964;9.406;2024-03-23T14:01:55;12.10;99.90
13344;DHT22;6741;48.964;9.406;2024-03-23T14:04:22;10.50;99.90
13344;DHT22;6741;48.964;9.406;2024-03-23T14:06:50;10.00;99.90
13344;DHT22;6741;48.964;9.406;2024-03-23T14:09:16;8.60;99.90
13344;DHT22;6741;48.964;9.406;2024-03-23T14:11:46;7.20;99.90
13344;DHT22;6741;48.964;9.406;2024-03-23T14:14:12;6.50;99.90
13344;DHT22;6741;48.964;9.406;2024-03-23T14:16:42;6.10;99.90
13344;DHT22;6741;48.964;9.406;2024-03-23T14:19:09;5.90;99.90
13344;DHT22;6741;48.964;9.406;2024-03-23T14:21:36;5.90;99.90
13344;DHT22;6741;48.964;9.406;2024-03-23T14:24:02;5.90;99.90
13344;DHT22;6741;48.964;9.406;2024-03-23T14:26:29;5.90;99.90
13344;DHT22;6741;48.964;9.406;2024-03-23T14:28:55;5.90;40.80
13344;DHT22;6741;48.964;9.406;2024-03-23T14:31:22;6.00;42.90
13344;DHT22;6741;48.964;9.406;2024-03-23T14:33:50;6.30;9.80
13344;DHT22;6741;48.964;9.406;2024-03-23T14:36:17;6.90;1.00
13344;DHT22;6741;48.964;9.406;2024-03-23T14:38:47;6.90;1.00
13344;DHT22;6741;48.964;9.406;2024-03-23T14:41:13;6.70;1.00
13344;DHT22;6741;48.964;9.406;2024-03-23T14:43:40;6.50;1.00
13344;DHT22;6741;48.964;9.406;2024-03-23T14:46:07;6.40;1.00
13344;DHT22;6741;48.964;9.406;2024-03-23T14:48:34;6.40;1.00
13344;DHT22;6741;48.964;9.406;2024-03-23T14:51:00;7.00;1.00
13344;DHT22;6741;48.964;9.406;2024-03-23T14:53:31;9.30;1.00
13344;DHT22;6741;48.964;9.406;2024-03-23T14:55:57;10.00;1.00
13344;DHT22;6741;48.964;9.406;2024-03-23T14:58:25;10.90;1.00
13344;DHT22;6741;48.964;9.406;2024-03-23T15:00:51;12.00;99.90
13344;DHT22;6741;48.964;9.406;2024-03-23T15:03:18;11.20;1.00
13344;DHT22;6741;48.964;9.406;2024-03-23T15:05:53;9.90;1.00
13344;DHT22;6741;48.964;9.406;2024-03-23T15:08:20;8.80;99.90
13344;DHT22;6741;48.964;9.406;2024-03-23T15:10:47;8.20;1.00
13344;DHT22;6741;48.964;9.406;2024-03-23T15:13:14;7.80;1.00
13344;DHT22;6741;48.964;9.406;2024-03-23T15:15:40;7.60;99.90
13344;DHT22;6741;48.964;9.406;2024-03-23T15:18:09;7.50;1.00
13344;DHT22;6741;48.964;9.406;2024-03-23T15:20:38;7.60;99.90
13344;DHT22;6741;48.964;9.406;2024-03-23T15:23:04;7.80;1.00
13344;DHT22;6741;48.964;9.406;2024-03-23T15:25:31;8.20;99.90
13344;DHT22;6741;48.964;9.406;2024-03-23T15:27:59;8.60;1.00
13344;DHT22;6741;48.964;9.406;2024-03-23T15:30:26;8.10;99.90
13344;DHT22;6741;48.964;9.406;2024-03-23T15:32:52;7.70;1.00
13344;DHT22;6741;48.964;9.406;2024-03-23T15:35:19;7.90;1.00
13344;DHT22;6741;48.964;9.406;2024-03-23T15:37:45;8.30;1.00
13344;DHT22;6741;48.964;9.406;2024-03-23T15:40:12;8.20;1.00
13344;DHT22;6741;48.964;9.406;2024-03-23T15:42:38;8.10;1.00
13344;DHT22;6741;48.964;9.406;2024-03-23T15:45:08;8.10;1.00
13344;DHT22;6741;48.964;9.406;2024-03-23T15:47:35;8.20;1.00
13344;DHT22;6741;48.964;9.406;2024-03-23T15:50:02;8.10;1.00
13344;DHT22;6741;48.964;9.406;2024-03-23T15:52:33;8.00;1.00
13344;DHT22;6741;48.964;9.406;2024-03-23T15:55:01;8.00;1.00
13344;DHT22;6741;48.964;9.406;2024-03-23T15:57:26;8.00;1.00
13344;DHT22;6741;48.964;9.406;2024-03-23T15:59:53;7.80;99.90
13344;DHT22;6741;48.964;9.406;2024-03-23T16:02:20;7.90;1.00
13344;DHT22;6741;48.964;9.406;2024-03-23T16:04:47;7.80;1.00
13344;DHT22;6741;48.964;9.406;2024-03-23T16:07:13;7.80;1.00
13344;DHT22;6741;48.964;9.406;2024-03-23T16:09:40;7.80;99.90
13344;DHT22;6741;48.964;9.406;2024-03-23T16:12:06;7.90;99.90
13344;DHT22;6741;48.964;9.406;2024-03-23T16:14:33;7.80;1.00
13344;DHT22;6741;48.964;9.406;2024-03-23T16:16:59;8.00;99.90
13344;DHT22;6741;48.964;9.406;2024-03-23T16:19:27;8.10;99.90
13344;DHT22;6741;48.964;9.406;2024-03-23T16:21:52;7.90;99.90
13344;DHT22;6741;48.964;9.406;2024-03-23T16:24:20;7.80;99.90
13344;DHT22;6741;48.964;9.406;2024-03-23T16:26:46;7.70;99.90
13344;DHT22;6741;48.964;9.406;2024-03-23T16:29:15;7.50;1.00
13344;DHT22;6741;48.964;9.406;2024-03-23T16:31:41;7.40;1.00
13344;DHT22;6741;48.964;9.406;2024-03-23T16:34:08;7.30;99.90
13344;DHT22;6741;48.964;9.406;2024-03-23T16:36:35;7.20;1.00
13344;DHT22;6741;48.964;9.406;2024-03-23T16:39:02;7.20;99.90
13344;DHT22;6741;48.964;9.406;2024-03-23T16:41:27;7.20;19.10
13344;DHT22;6741;48.964;9.406;2024-03-23T16:43:54;7.00;99.90
13344;DHT22;6741;48.964;9.406;2024-03-23T16:46:20;7.00;1.00
13344;DHT22;6741;48.964;9.406;2024-03-23T16:48:48;7.00;1.00
13344;DHT22;6741;48.964;9.406;2024-03-23T16:51:14;7.00;1.00
13344;DHT22;6741;48.964;9.406;2024-03-23T16:53:42;7.00;1.00
13344;DHT22;6741;48.964;9.406;2024-03-23T16:56:09;7.10;99.90
13344;DHT22;6741;48.964;9.406;2024-03-23T16:58:37;7.00;99.90